createdAt,value
2019-05-06T00:01:05.722Z,39.70
2019-05-06T00:03:35.643Z,41.23
2019-05-06T00:06:05.659Z,40.20
2019-05-06T00:08:35.687Z,36.15
2019-05-06T00:11:05.709Z,40.55
2019-05-06T00:13:35.652Z,40.30
2019-05-06T00:16:05.666Z,40.23
2019-05-06T00:18:35.619Z,37.55
2019-05-06T00:21:05.492Z,39.27
2019-05-06T00:23:38.191Z,42.30
2019-05-06T00:26:11.138Z,41.35
2019-05-06T00:28:44.655Z,37.28
2019-05-06T00:31:16.703Z,39.67
2019-05-06T00:33:46.498Z,38.88
2019-05-06T00:36:16.286Z,42.10
2019-05-06T00:38:47.607Z,39.08
2019-05-06T00:41:19.079Z,36.93
2019-05-06T00:43:48.792Z,38.58
2019-05-06T00:46:18.530Z,47.23
2019-05-06T00:48:48.245Z,42.17
2019-05-06T00:51:18.064Z,42.25
2019-05-06T00:53:49.630Z,42.98
2019-05-06T00:56:19.380Z,44.07
2019-05-06T00:58:49.126Z,42.62
2019-05-06T01:01:28.057Z,44.18
2019-05-06T01:03:50.368Z,40.30
2019-05-06T01:06:20.151Z,36.98
2019-05-06T01:08:50.043Z,38.45
2019-05-06T01:11:20.003Z,40.90
2019-05-06T01:13:51.252Z,44.75
2019-05-06T01:16:21.883Z,37.48
2019-05-06T01:18:54.023Z,37.88
2019-05-06T01:21:23.912Z,38.98
2019-05-06T01:23:54.518Z,39.85
2019-05-06T01:26:24.538Z,35.73
2019-05-06T01:28:54.895Z,37.63
2019-05-06T01:31:38.874Z,40.52
2019-05-06T01:33:56.354Z,38.85
2019-05-06T01:36:26.248Z,38.55
2019-05-06T01:38:59.074Z,37.30
2019-05-06T01:41:30.430Z,39.10
2019-05-06T01:44:00.306Z,36.53
2019-05-06T01:46:30.167Z,31.93
2019-05-06T01:48:59.874Z,33.50
2019-05-06T01:51:29.694Z,33.95
2019-05-06T01:53:59.463Z,35.83
2019-05-06T01:56:29.138Z,36.10
2019-05-06T01:58:58.959Z,32.55
2019-05-06T02:01:28.862Z,35.08
2019-05-06T02:03:58.643Z,31.62
2019-05-06T02:06:28.539Z,31.45
2019-05-06T02:08:58.135Z,30.82
2019-05-06T02:11:28.013Z,28.32
2019-05-06T02:13:57.840Z,28.80
2019-05-06T02:16:28.644Z,25.25
2019-05-06T02:18:58.450Z,28.52
2019-05-06T02:21:30.309Z,31.50
2019-05-06T02:24:01.672Z,28.42
2019-05-06T02:26:31.488Z,30.72
2019-05-06T02:29:04.265Z,34.85
2019-05-06T02:31:35.618Z,32.13
2019-05-06T02:34:06.896Z,31.33
2019-05-06T02:36:38.316Z,28.50
2019-05-06T02:39:08.223Z,30.23
2019-05-06T02:41:38.068Z,31.02
2019-05-06T02:44:10.277Z,28.55
2019-05-06T02:46:43.874Z,28.57
2019-05-06T02:49:14.349Z,26.02
2019-05-06T02:51:45.232Z,31.33
2019-05-06T02:54:15.167Z,31.25
2019-05-06T02:56:44.980Z,30.45
2019-05-06T02:59:14.865Z,32.95
2019-05-06T03:01:44.705Z,27.40
2019-05-06T03:04:14.384Z,30.27
2019-05-06T03:06:44.840Z,30.75
2019-05-06T03:09:14.768Z,32.13
2019-05-06T03:11:44.678Z,28.55
2019-05-06T03:14:14.582Z,30.35
2019-05-06T03:16:44.498Z,28.40
2019-05-06T03:19:14.376Z,24.57
2019-05-06T03:21:45.735Z,26.97
2019-05-06T03:24:17.559Z,31.60
2019-05-06T03:26:49.057Z,30.82
2019-05-06T03:29:18.951Z,29.72
2019-05-06T03:31:48.731Z,31.62
2019-05-06T03:34:38.416Z,30.60
2019-05-06T03:36:55.471Z,29.63
2019-05-06T03:39:23.245Z,28.83
2019-05-06T03:41:53.818Z,27.25
2019-05-06T03:44:24.146Z,29.57
2019-05-06T03:46:55.436Z,23.20
2019-05-06T03:49:26.908Z,24.60
2019-05-06T03:51:56.655Z,28.05
2019-05-06T03:54:26.533Z,26.93
2019-05-06T03:56:57.254Z,23.70
2019-05-06T03:59:29.580Z,25.55
2019-05-06T04:01:59.256Z,22.80
2019-05-06T04:04:29.097Z,22.73
2019-05-06T04:06:58.970Z,21.70
2019-05-06T04:09:28.772Z,24.20
2019-05-06T04:11:59.294Z,20.27
2019-05-06T04:14:32.965Z,21.85
2019-05-06T04:17:04.085Z,22.95
2019-05-06T04:19:35.531Z,22.30
2019-05-06T04:22:06.892Z,18.40
2019-05-06T04:24:38.518Z,20.77
2019-05-06T04:27:22.903Z,17.95
2019-05-06T04:29:54.353Z,17.52
2019-05-06T04:32:24.605Z,16.52
2019-05-06T04:34:54.811Z,17.60
2019-05-06T04:37:24.723Z,14.58
2019-05-06T04:39:54.561Z,16.00
2019-05-06T04:42:26.915Z,15.23
2019-05-06T04:44:55.858Z,15.00
2019-05-06T04:47:25.993Z,13.48
2019-05-06T04:49:55.881Z,15.40
2019-05-06T04:52:26.284Z,14.95
2019-05-06T04:54:57.344Z,13.38
2019-05-06T04:57:27.186Z,13.00
2019-05-06T04:59:57.224Z,12.37
2019-05-06T05:02:28.751Z,12.15
2019-05-06T05:05:03.679Z,10.10
2019-05-06T05:07:33.463Z,13.50
2019-05-06T05:10:04.788Z,9.33
2019-05-06T05:12:39.356Z,9.10
2019-05-06T05:15:11.856Z,10.75
2019-05-06T05:17:43.641Z,11.97
2019-05-06T05:20:13.706Z,11.97
2019-05-06T05:22:43.591Z,12.03
2019-05-06T05:25:13.571Z,10.15
2019-05-06T05:27:43.498Z,11.60
2019-05-06T05:30:13.592Z,10.63
2019-05-06T05:32:43.260Z,9.80
2019-05-06T05:35:13.221Z,12.68
2019-05-06T05:37:42.983Z,9.58
2019-05-06T05:40:13.123Z,10.70
2019-05-06T05:42:44.765Z,10.00
2019-05-06T05:45:15.448Z,10.80
2019-05-06T05:47:45.788Z,10.58
2019-05-06T05:50:17.365Z,12.33
2019-05-06T05:52:47.301Z,15.10
2019-05-06T05:55:17.100Z,14.83
2019-05-06T05:57:47.003Z,10.38
2019-05-06T06:00:17.976Z,12.43
2019-05-06T06:02:47.979Z,10.28
2019-05-06T06:05:17.854Z,10.40
2019-05-06T06:07:48.341Z,10.40
2019-05-06T06:10:22.461Z,10.72
2019-05-06T06:12:53.905Z,11.05
2019-05-06T06:15:25.380Z,8.10
2019-05-06T06:17:57.220Z,8.25
2019-05-06T06:20:29.274Z,8.05
2019-05-06T06:23:02.840Z,7.67
2019-05-06T06:25:33.409Z,10.35
2019-05-06T06:28:03.660Z,5.35
2019-05-06T06:30:35.057Z,6.10
2019-05-06T06:33:05.145Z,7.47
2019-05-06T06:35:36.752Z,5.15
2019-05-06T06:38:08.271Z,6.37
2019-05-06T06:40:38.336Z,5.17
2019-05-06T06:43:09.810Z,4.65
2019-05-06T06:45:42.031Z,4.77
2019-05-06T06:48:12.379Z,4.70
2019-05-06T06:50:42.698Z,5.10
2019-05-06T06:53:12.676Z,6.22
2019-05-06T06:55:43.954Z,4.75
2019-05-06T06:58:17.316Z,4.85
2019-05-06T07:00:49.470Z,3.20
2019-05-06T07:05:53.539Z,5.53
2019-05-06T07:08:34.115Z,3.67
2019-05-06T07:10:56.620Z,4.22
2019-05-06T07:13:28.044Z,4.22
2019-05-06T07:15:58.139Z,3.47
2019-05-06T07:18:28.174Z,5.10
2019-05-06T07:21:03.277Z,3.50
2019-05-06T07:23:32.818Z,5.72
2019-05-06T07:26:04.744Z,4.28
2019-05-06T07:28:34.665Z,4.67
2019-05-06T07:31:17.252Z,5.90
2019-05-06T07:33:36.201Z,4.12
2019-05-06T07:36:06.998Z,6.70
2019-05-06T07:38:38.435Z,4.65
2019-05-06T07:41:09.925Z,3.80
2019-05-06T07:43:42.093Z,6.33
2019-05-06T07:46:13.556Z,3.92
2019-05-06T07:48:43.535Z,4.20
2019-05-06T07:51:13.402Z,3.92
2019-05-06T07:53:43.244Z,6.28
2019-05-06T07:56:13.402Z,7.12
2019-05-06T07:58:43.578Z,5.62
2019-05-06T08:01:13.923Z,4.15
2019-05-06T08:03:45.288Z,4.50
2019-05-06T08:06:14.987Z,3.27
2019-05-06T08:08:45.151Z,5.17
2019-05-06T08:11:14.888Z,4.95
2019-05-06T08:13:44.810Z,4.47
2019-05-06T08:16:14.708Z,5.12
2019-05-06T08:18:44.465Z,3.42
2019-05-06T08:21:16.023Z,2.85
2019-05-06T08:23:47.513Z,4.00
2019-05-06T08:26:17.947Z,4.60
2019-05-06T08:28:48.258Z,5.42
2019-05-06T08:31:19.505Z,2.22
2019-05-06T08:33:49.448Z,3.02
2019-05-06T08:36:22.581Z,3.72
2019-05-06T08:38:54.140Z,8.98
2019-05-06T08:41:24.273Z,5.25
2019-05-06T08:43:54.335Z,3.00
2019-05-06T08:46:24.389Z,3.70
2019-05-06T08:48:54.237Z,4.80
2019-05-06T08:51:25.735Z,2.62
2019-05-06T08:53:57.101Z,3.92
2019-05-06T08:56:26.737Z,2.30
2019-05-06T08:58:56.601Z,4.33
2019-05-06T09:01:28.125Z,5.97
2019-05-06T09:04:08.764Z,3.00
2019-05-06T09:06:31.576Z,2.72
2019-05-06T09:09:02.383Z,3.77
2019-05-06T09:11:33.930Z,3.85
2019-05-06T09:14:03.844Z,3.42
2019-05-06T09:16:34.079Z,2.77
2019-05-06T09:19:04.639Z,6.80
2019-05-06T09:21:34.613Z,2.67
2019-05-06T09:24:04.491Z,2.70
2019-05-06T09:26:36.001Z,2.35
2019-05-06T09:29:07.360Z,3.90
2019-05-06T09:31:38.626Z,2.70
2019-05-06T09:34:09.912Z,3.05
2019-05-06T09:36:46.948Z,2.20
2019-05-06T09:39:13.005Z,2.47
2019-05-06T09:41:46.483Z,3.52
2019-05-06T09:44:14.457Z,2.30
2019-05-06T09:46:44.210Z,2.72
2019-05-06T09:49:15.740Z,3.00
2019-05-06T09:51:45.644Z,4.05
2019-05-06T09:54:17.299Z,3.65
2019-05-06T09:56:48.783Z,3.52
2019-05-06T09:59:18.744Z,3.80
2019-05-06T10:01:48.803Z,2.98
2019-05-06T10:04:18.726Z,3.08
2019-05-06T10:06:56.182Z,3.67
2019-05-06T10:09:20.117Z,2.85
2019-05-06T10:11:50.097Z,5.65
2019-05-06T10:14:20.074Z,3.37
2019-05-06T10:16:52.209Z,3.22
2019-05-06T10:19:22.623Z,3.30
2019-05-06T10:21:53.531Z,3.70
2019-05-06T10:24:23.448Z,3.42
2019-05-06T10:26:55.005Z,4.85
2019-05-06T10:29:26.455Z,5.80
2019-05-06T10:31:57.933Z,3.77
2019-05-06T10:34:27.817Z,3.42
2019-05-06T10:39:40.690Z,3.62
2019-05-06T10:42:13.618Z,3.87
2019-05-06T10:44:46.836Z,3.12
2019-05-06T10:47:16.554Z,2.90
2019-05-06T10:49:46.357Z,4.60
2019-05-06T10:52:17.862Z,6.37
2019-05-06T10:54:47.623Z,6.05
2019-05-06T10:57:19.100Z,3.42
2019-05-06T10:59:48.922Z,3.47
2019-05-06T11:05:07.501Z,6.95
2019-05-06T11:07:38.267Z,4.27
2019-05-06T11:10:20.537Z,3.47
2019-05-06T11:12:39.880Z,3.65
2019-05-06T11:15:12.192Z,4.25
2019-05-06T11:17:43.427Z,4.87
2019-05-06T11:20:13.937Z,6.33
2019-05-06T11:22:44.058Z,4.33
2019-05-06T11:25:14.527Z,3.30
2019-05-06T11:27:45.357Z,4.08
2019-05-06T11:30:17.504Z,4.10
2019-05-06T11:32:48.908Z,3.62
2019-05-06T11:35:22.819Z,4.08
2019-05-06T11:37:54.482Z,4.22
2019-05-06T11:40:24.431Z,5.15
2019-05-06T11:42:54.115Z,6.92
2019-05-06T11:45:24.004Z,3.77
2019-05-06T11:47:55.987Z,3.90
2019-05-06T11:50:26.013Z,5.25
2019-05-06T11:52:57.102Z,3.90
2019-05-06T11:55:31.641Z,3.33
2019-05-06T11:57:58.447Z,4.85
2019-05-06T12:00:33.233Z,3.75
2019-05-06T12:03:02.394Z,5.20
2019-05-06T12:05:32.990Z,6.05
2019-05-06T12:08:08.040Z,6.15
2019-05-06T12:10:34.571Z,4.30
2019-05-06T12:13:04.340Z,4.08
2019-05-06T12:15:34.225Z,4.50
2019-05-06T12:18:04.192Z,4.40
2019-05-06T12:20:34.103Z,6.80
2019-05-06T12:23:04.646Z,4.80
2019-05-06T12:25:34.575Z,3.92
2019-05-06T12:28:04.473Z,5.28
2019-05-06T12:30:34.357Z,4.65
2019-05-06T12:33:06.178Z,3.60
2019-05-06T12:35:37.571Z,4.72
2019-05-06T12:38:23.913Z,4.37
2019-05-06T12:40:42.724Z,3.20
2019-05-06T12:43:13.457Z,4.08
2019-05-06T12:45:45.029Z,5.75
2019-05-06T12:48:16.340Z,4.12
2019-05-06T12:50:46.119Z,4.12
2019-05-06T12:53:15.900Z,6.12
2019-05-06T12:55:45.813Z,3.12
2019-05-06T12:58:20.022Z,3.22
2019-05-06T13:00:47.295Z,4.62
2019-05-06T13:03:17.101Z,6.92
2019-05-06T13:05:46.915Z,4.95
2019-05-06T13:08:20.399Z,5.28
2019-05-06T13:10:48.155Z,4.95
2019-05-06T13:13:18.031Z,3.95
2019-05-06T13:15:47.804Z,3.65
2019-05-06T13:18:17.816Z,4.33
2019-05-06T13:20:50.995Z,3.45
2019-05-06T13:23:25.280Z,3.87
2019-05-06T13:25:52.767Z,3.37
2019-05-06T13:28:24.340Z,3.20
2019-05-06T13:30:54.296Z,3.42
2019-05-06T13:33:25.711Z,3.37
2019-05-06T13:35:55.577Z,3.02
2019-05-06T13:38:25.480Z,6.22
2019-05-06T13:40:57.661Z,2.77
2019-05-06T13:43:28.702Z,4.53
2019-05-06T13:45:59.941Z,4.17
2019-05-06T13:48:32.795Z,3.55
2019-05-06T13:51:04.264Z,4.30
2019-05-06T13:53:39.707Z,5.10
2019-05-06T13:56:05.797Z,4.78
2019-05-06T13:58:35.663Z,4.83
2019-05-06T14:01:07.147Z,3.05
2019-05-06T14:03:36.963Z,2.20
2019-05-06T14:06:06.804Z,3.40
2019-05-06T14:08:36.513Z,3.62
2019-05-06T14:11:06.349Z,2.83
2019-05-06T14:13:36.257Z,4.33
2019-05-06T14:16:06.237Z,3.75
2019-05-06T14:18:37.734Z,2.70
2019-05-06T14:21:08.893Z,2.55
2019-05-06T14:23:38.740Z,2.72
2019-05-06T14:26:12.439Z,3.20
2019-05-06T14:28:43.180Z,3.42
2019-05-06T14:31:14.529Z,3.72
2019-05-06T14:33:44.365Z,3.20
2019-05-06T14:36:14.172Z,2.27
2019-05-06T14:38:43.976Z,3.75
2019-05-06T14:41:15.371Z,2.42
2019-05-06T14:43:45.303Z,1.95
2019-05-06T14:46:15.173Z,3.62
2019-05-06T14:48:45.095Z,4.78
2019-05-06T14:51:14.979Z,4.42
2019-05-06T14:53:44.899Z,3.15
2019-05-06T14:56:17.336Z,3.45
2019-05-06T14:58:48.742Z,3.10
2019-05-06T15:01:18.547Z,3.42
2019-05-06T15:03:48.288Z,3.25
2019-05-06T15:06:18.053Z,4.47
2019-05-06T15:08:47.804Z,3.12
2019-05-06T15:11:17.705Z,3.33
2019-05-06T15:13:47.583Z,2.25
2019-05-06T15:16:17.421Z,7.85
2019-05-06T15:18:47.255Z,3.52
2019-05-06T15:21:33.320Z,5.33
2019-05-06T15:23:48.339Z,9.38
2019-05-06T15:26:18.328Z,3.27
2019-05-06T15:28:48.126Z,3.08
2019-05-06T15:31:19.472Z,3.27
2019-05-06T15:33:52.751Z,4.12
2019-05-06T15:36:23.803Z,3.40
2019-05-06T15:38:53.644Z,3.40
2019-05-06T15:41:24.604Z,2.77
2019-05-06T15:43:54.371Z,2.60
2019-05-06T15:46:24.308Z,1.92
2019-05-06T15:48:54.116Z,2.72
2019-05-06T15:51:25.599Z,4.40
2019-05-06T15:53:55.359Z,2.37
2019-05-06T15:56:25.259Z,4.45
2019-05-06T15:58:54.849Z,3.15
2019-05-06T16:01:24.615Z,4.65
2019-05-06T16:03:54.496Z,2.75
2019-05-06T16:06:24.385Z,2.60
2019-05-06T16:08:54.054Z,3.35
2019-05-06T16:11:23.940Z,4.40
2019-05-06T16:13:54.853Z,3.90
2019-05-06T16:16:24.764Z,3.33
2019-05-06T16:18:54.384Z,5.47
2019-05-06T16:21:24.076Z,6.28
2019-05-06T16:23:55.592Z,4.60
2019-05-06T16:26:25.419Z,5.12
2019-05-06T16:28:55.315Z,3.55
2019-05-06T16:31:25.228Z,4.10
2019-05-06T16:33:55.204Z,5.22
2019-05-06T16:36:25.123Z,4.95
2019-05-06T16:38:55.041Z,4.78
2019-05-06T16:41:24.779Z,5.17
2019-05-06T16:43:54.701Z,4.42
2019-05-06T16:46:24.585Z,7.08
2019-05-06T16:48:54.435Z,3.62
2019-05-06T16:51:24.318Z,5.05
2019-05-06T16:53:54.307Z,5.00
2019-05-06T16:56:25.754Z,4.47
2019-05-06T16:58:57.212Z,3.87
2019-05-06T17:01:27.233Z,4.22
2019-05-06T17:03:58.312Z,4.28
2019-05-06T17:06:29.826Z,4.35
2019-05-06T17:09:16.194Z,4.08
2019-05-06T17:11:34.613Z,4.97
2019-05-06T17:14:04.431Z,5.20
2019-05-06T17:16:34.782Z,5.03
2019-05-06T17:19:05.244Z,5.15
2019-05-06T17:21:35.156Z,5.40
2019-05-06T17:24:05.103Z,6.80
2019-05-06T17:26:34.958Z,6.05
2019-05-06T17:29:06.424Z,4.72
2019-05-06T17:31:37.829Z,5.25
2019-05-06T17:34:09.252Z,5.25
2019-05-06T17:36:42.139Z,3.02
2019-05-06T17:39:12.984Z,3.95
2019-05-06T17:41:48.510Z,3.40
2019-05-06T17:44:14.292Z,4.78
2019-05-06T17:46:45.676Z,4.03
2019-05-06T17:49:17.127Z,6.47
2019-05-06T17:51:51.893Z,4.97
2019-05-06T17:54:22.152Z,3.70
2019-05-06T17:56:52.791Z,5.33
2019-05-06T17:59:22.583Z,4.45
2019-05-06T18:01:53.944Z,3.92
2019-05-06T18:04:23.760Z,3.40
2019-05-06T18:06:53.417Z,3.47
2019-05-06T18:09:23.251Z,4.80
2019-05-06T18:11:58.773Z,5.40
2019-05-06T18:14:24.555Z,4.83
2019-05-06T18:16:54.492Z,4.78
2019-05-06T18:19:24.319Z,4.17
2019-05-06T18:21:54.160Z,5.60
2019-05-06T18:24:24.020Z,5.08
2019-05-06T18:26:53.803Z,5.55
2019-05-06T18:29:23.721Z,7.72
2019-05-06T18:31:53.597Z,5.28
2019-05-06T18:34:24.540Z,7.33
2019-05-06T18:36:54.311Z,8.00
2019-05-06T18:39:24.105Z,6.72
2019-05-06T18:41:54.033Z,7.30
2019-05-06T18:44:23.758Z,5.75
2019-05-06T18:46:53.530Z,6.45
2019-05-06T18:49:23.449Z,7.00
2019-05-06T18:51:54.292Z,7.65
2019-05-06T18:54:25.735Z,6.33
2019-05-06T18:56:55.741Z,7.33
2019-05-06T18:59:25.648Z,8.05
2019-05-06T19:01:55.500Z,8.53
2019-05-06T19:04:26.835Z,6.45
2019-05-06T19:07:09.406Z,8.10
2019-05-06T19:09:32.614Z,8.18
2019-05-06T19:12:03.534Z,10.88
2019-05-06T19:14:34.919Z,12.47
2019-05-06T19:17:04.805Z,11.28
2019-05-06T19:19:35.038Z,11.88
2019-05-06T19:22:05.144Z,13.80
2019-05-06T19:24:34.887Z,12.23
2019-05-06T19:27:04.834Z,11.43
2019-05-06T19:29:34.732Z,12.55
2019-05-06T19:32:04.660Z,14.35
2019-05-06T19:34:35.359Z,14.40
2019-05-06T19:37:05.344Z,15.13
2019-05-06T19:39:36.218Z,14.00
2019-05-06T19:42:06.195Z,15.38
2019-05-06T19:44:36.108Z,16.90
2019-05-06T19:47:05.986Z,16.23
2019-05-06T19:49:35.771Z,15.83
2019-05-06T19:52:05.696Z,15.35
2019-05-06T19:54:35.598Z,17.37
2019-05-06T19:57:05.431Z,13.48
2019-05-06T19:59:35.357Z,15.10
2019-05-06T20:02:05.525Z,15.13
2019-05-06T20:04:36.667Z,17.65
2019-05-06T20:07:09.175Z,35.45
2019-05-06T20:09:45.216Z,43.65
2019-05-06T20:12:16.703Z,28.55
2019-05-06T20:14:46.616Z,28.98
2019-05-06T20:17:16.391Z,25.85
2019-05-06T20:19:46.280Z,34.45
2019-05-06T20:22:16.003Z,33.65
2019-05-06T20:24:45.967Z,36.38
2019-05-06T20:27:15.791Z,38.15
2019-05-06T20:29:45.581Z,43.65
2019-05-06T20:32:15.430Z,41.98
2019-05-06T20:34:45.244Z,38.65
2019-05-06T20:37:15.043Z,34.70
2019-05-06T20:39:44.935Z,27.13
2019-05-06T20:42:14.720Z,23.67
2019-05-06T20:44:44.534Z,22.52
2019-05-06T20:47:15.481Z,20.50
2019-05-06T20:49:45.215Z,17.92
2019-05-06T20:52:15.081Z,17.85
2019-05-06T20:54:44.894Z,24.55
2019-05-06T20:57:14.538Z,19.52
2019-05-06T20:59:44.308Z,26.48
2019-05-06T21:02:14.017Z,38.38
2019-05-06T21:04:43.759Z,35.20
2019-05-06T21:07:13.514Z,26.73
2019-05-06T21:09:43.407Z,22.42
2019-05-06T21:12:13.219Z,30.12
2019-05-06T21:14:43.309Z,19.75
2019-05-06T21:17:13.247Z,20.48
2019-05-06T21:19:43.021Z,15.05
2019-05-06T21:22:13.360Z,15.30
2019-05-06T21:24:44.372Z,12.33
2019-05-06T21:27:14.087Z,13.22
2019-05-06T21:29:44.013Z,13.25
2019-05-06T21:32:13.827Z,12.15
2019-05-06T21:34:43.598Z,11.33
2019-05-06T21:37:13.429Z,10.90
2019-05-06T21:39:43.277Z,11.33
2019-05-06T21:42:14.804Z,12.60
2019-05-06T21:44:45.167Z,11.55
2019-05-06T21:47:14.983Z,8.68
2019-05-06T21:49:44.738Z,16.30
2019-05-06T21:52:14.523Z,13.72
2019-05-06T21:54:44.337Z,11.33
2019-05-06T21:57:13.998Z,12.60
2019-05-06T21:59:43.767Z,18.57
2019-05-06T22:02:15.323Z,22.13
2019-05-06T22:04:45.132Z,26.57
2019-05-06T22:07:15.054Z,20.95
2019-05-06T22:09:44.860Z,18.73
2019-05-06T22:12:14.665Z,13.53
2019-05-06T22:14:44.255Z,12.20
2019-05-06T22:17:14.226Z,9.85
2019-05-06T22:19:43.982Z,9.83
2019-05-06T22:22:15.386Z,6.80
2019-05-06T22:24:46.311Z,6.70
2019-05-06T22:27:16.957Z,7.65
2019-05-06T22:29:46.984Z,10.32
2019-05-06T22:32:16.961Z,8.65
2019-05-06T22:34:46.865Z,8.90
2019-05-06T22:37:16.599Z,6.55
2019-05-06T22:39:46.394Z,6.55
2019-05-06T22:42:16.264Z,6.33
2019-05-06T22:44:45.941Z,5.42
2019-05-06T22:47:15.829Z,5.90
2019-05-06T22:49:45.677Z,5.53
2019-05-06T22:52:15.588Z,7.55
2019-05-06T22:54:45.229Z,11.18
2019-05-06T22:57:15.035Z,7.10
2019-05-06T22:59:44.779Z,6.55
2019-05-06T23:02:16.145Z,9.88
2019-05-06T23:04:47.476Z,11.40
2019-05-06T23:07:17.223Z,9.03
2019-05-06T23:09:47.076Z,7.37
2019-05-06T23:12:17.004Z,7.25
2019-05-06T23:14:46.863Z,7.40
2019-05-06T23:17:16.675Z,7.75
2019-05-06T23:19:46.595Z,9.43
2019-05-06T23:22:16.495Z,7.75
2019-05-06T23:24:46.362Z,6.35
2019-05-06T23:27:16.084Z,7.08
2019-05-06T23:29:45.902Z,5.22
2019-05-06T23:32:15.766Z,8.15
2019-05-06T23:34:45.713Z,7.80
2019-05-06T23:37:19.292Z,6.35
2019-05-06T23:39:53.571Z,7.25
2019-05-06T23:42:26.241Z,6.28
2019-05-06T23:44:58.935Z,7.40
2019-05-06T23:47:31.653Z,8.45
2019-05-06T23:50:04.408Z,6.67
2019-05-06T23:52:38.267Z,9.78
2019-05-06T23:55:12.490Z,4.75
